Montevideo, Minnesota
Current Conditions -  °F | °C
As of 10:14 AM on Saturday 20 Dec 2014 (Local Time) from KMVE Reporting Station
Haze Haze  
Wind Chill: 23°   Ceiling: 1100
Heat Index: 30°   Visibility: 5mi
Dew Point: 30°   Wind: 8mph
Humidity: 100%   Direction: 220°SW
Pressure: 30.09"   Gusts: NA
Location:  44.95°N, 95.72°W
Report Text: KMVE 201614Z AUTO 22007KT 5SM BR OVC011 M01/M01 A3009 RMK AO2
Loading
Personal Weather Stations






























Interactive Weather Map New forecast layout! Learn more

10-Day Weather Forecast

Advertisements
Track Severe Weather on mobile